Startpagina
METAR-TAF:

METAR-TAF

Vliegvelden :

Kota Kinabalu International Airport

Kota Kinabalu, Maleisië

breedte: 05-56N, lengte: 116-03E, hoogte: 3 m

Actueel weer

Dit bericht is 15 minuten geleden gemaakt, om 19:00 UTC
Wind 1 kt uit variabele richting
Temperatuur 27°C
Vochtigheid 89%
Druk 1009 hPa
Zicht 10 km of meer
Weinig wolken op 1400 ft
Gebroken wolken op 27000 ft

METAR: WBKK 281900Z VRB01KT 9999 FEW014 BKN270 27/25 Q1009 NOSIG

Tijdstip: 03:15 (19:15 UTC)

Verwachting

Dit bericht is 2 uur en het 15 minuten geleden gemaakt, om 17:00 UTC
Verwachting geldig van 28 om 18 UTC tot 29 om 18 UTC
Wind 5 kt uit het oostzuidoosten
Zicht 10 km of meer
Weinig wolken op 1400 ft
Wijzigt naar
van 29 om 01 UTC tot 29 om 03 UTC
Wind 5 kt uit het westnoordwesten

TAF: WBKK 281700Z 2818/2918 11005KT 9999 FEW014 BECMG 2901/2903 30005KT

Waarnemingen en weersverwachtingen van meer dan 4000 vliegvelden (METAR en TAF).

De beschikbare stations zijn de gele en rode punten op de kaart.

Ga met uw muis naar het station om de naam te zien.

Klik dan om waarnemingen en weersverwachtingen te zien.

kaart wijzigen: klik op de groene knoppen met een zwart kruis om in te zoomen, op de groene knop met een streepje om uit te zoomen of op de groene pijlen voor aangrenzende kaarten.


METAR-TAF: